createdAt,value
2022-11-28T00:01:21.972Z,101963.28
2022-11-28T00:03:48.757Z,101961.28
2022-11-28T00:06:15.575Z,101964.00
2022-11-28T00:08:42.160Z,101964.84
2022-11-28T00:11:10.843Z,101965.00
2022-11-28T00:13:37.762Z,101965.00
2022-11-28T00:16:06.760Z,101960.44
2022-11-28T00:18:33.274Z,101963.16
2022-11-28T00:21:04.752Z,101959.44
2022-11-28T00:23:31.933Z,101944.16
2022-11-28T00:26:01.079Z,101956.88
2022-11-28T00:28:27.602Z,101946.00
2022-11-28T00:30:54.018Z,101951.59
2022-11-28T00:33:20.556Z,101946.28
2022-11-28T00:35:47.027Z,101957.13
2022-11-28T00:38:13.430Z,101941.88
2022-11-28T00:40:39.869Z,101932.88
2022-11-28T00:43:06.457Z,101941.00
2022-11-28T00:45:33.230Z,101937.44
2022-11-28T00:47:59.665Z,101937.44
2022-11-28T00:50:26.118Z,101934.00
2022-11-28T00:52:52.533Z,101938.56
2022-11-28T00:55:19.061Z,101939.31
2022-11-28T00:57:46.453Z,101929.44
2022-11-28T01:00:13.209Z,101927.72
2022-11-28T01:02:39.663Z,101926.88
2022-11-28T01:05:06.374Z,101927.72
2022-11-28T01:07:33.608Z,101921.44
2022-11-28T01:10:00.117Z,101912.59
2022-11-28T01:12:26.558Z,101908.16
2022-11-28T01:14:53.695Z,101910.00
2022-11-28T01:17:20.089Z,101910.16
2022-11-28T01:19:46.522Z,101897.59
2022-11-28T01:22:13.001Z,101904.91
2022-11-28T01:24:39.636Z,101902.31
2022-11-28T01:27:06.319Z,101902.19
2022-11-28T01:29:32.802Z,101900.44
2022-11-28T01:31:59.362Z,101899.59
2022-11-28T01:34:25.796Z,101891.59
2022-11-28T01:36:52.227Z,101889.00
2022-11-28T01:39:18.747Z,101887.19
2022-11-28T01:41:45.183Z,101886.19
2022-11-28T01:44:14.334Z,101876.34
2022-11-28T01:46:41.103Z,101880.03
2022-11-28T01:49:14.418Z,101881.75
2022-11-28T01:51:42.617Z,101875.44
2022-11-28T01:54:09.130Z,101871.75
2022-11-28T01:56:41.453Z,101861.88
2022-11-28T01:59:09.438Z,101853.91
2022-11-28T02:01:36.010Z,101859.47
2022-11-28T02:04:03.374Z,101852.47
2022-11-28T02:06:30.904Z,101851.78
2022-11-28T02:08:57.319Z,101851.91
2022-11-28T02:11:42.488Z,101851.78
2022-11-28T02:14:11.929Z,101856.47
2022-11-28T02:17:01.090Z,101850.19
2022-11-28T02:19:46.346Z,101844.91
2022-11-28T02:22:17.765Z,101845.91
2022-11-28T02:25:01.454Z,101843.19
2022-11-28T02:27:46.762Z,101845.91
2022-11-28T02:30:16.402Z,101846.75
2022-11-28T02:32:55.527Z,101845.03
2022-11-28T02:35:28.035Z,101847.75
2022-11-28T02:38:00.598Z,101840.78
2022-11-28T02:40:47.248Z,101838.06
2022-11-28T02:43:16.737Z,101839.94
2022-11-28T02:45:46.179Z,101827.22
2022-11-28T02:48:19.613Z,101835.34
2022-11-28T02:51:06.426Z,101832.66
2022-11-28T02:53:34.098Z,101830.63
2022-11-28T02:56:00.825Z,101831.47
2022-11-28T02:58:27.251Z,101828.78
2022-11-28T03:00:54.342Z,101816.06
2022-11-28T03:03:27.186Z,101814.34
2022-11-28T03:05:56.697Z,101812.50
2022-11-28T03:08:31.636Z,101807.94
2022-11-28T03:11:13.686Z,101806.06
2022-11-28T03:13:43.234Z,101804.25
2022-11-28T03:16:30.455Z,101804.25
2022-11-28T03:19:04.764Z,101802.50
2022-11-28T03:21:57.289Z,101801.66
2022-11-28T03:24:26.775Z,101797.94
2022-11-28T03:27:12.234Z,101795.38
2022-11-28T03:29:48.761Z,101800.09
2022-11-28T03:32:18.356Z,101796.53
2022-11-28T03:34:47.653Z,101786.66
2022-11-28T03:37:16.722Z,101784.81
2022-11-28T03:39:46.787Z,101791.22
2022-11-28T03:42:15.650Z,101784.09
2022-11-28T03:44:49.985Z,101780.53
2022-11-28T03:47:16.454Z,101780.38
2022-11-28T03:49:47.669Z,101777.69
2022-11-28T03:52:16.639Z,101776.66
2022-11-28T03:54:43.681Z,101774.84
2022-11-28T03:57:17.962Z,101774.97
2022-11-28T03:59:44.405Z,101774.97
2022-11-28T04:02:22.407Z,101775.81
2022-11-28T04:04:48.765Z,101767.69
2022-11-28T04:07:15.339Z,101767.09
2022-11-28T04:09:45.267Z,101763.53
2022-11-28T04:12:20.093Z,101763.53
2022-11-28T04:14:53.682Z,101754.56
2022-11-28T04:17:25.390Z,101757.44
2022-11-28T04:19:58.379Z,101762.00
2022-11-28T04:22:28.651Z,101768.13
2022-11-28T04:24:58.269Z,101765.41
2022-11-28T04:27:29.368Z,101759.97
2022-11-28T04:29:58.751Z,101750.28
2022-11-28T04:32:26.866Z,101751.28
2022-11-28T04:34:56.997Z,101732.44
2022-11-28T04:37:25.166Z,101729.84
2022-11-28T04:39:52.509Z,101739.69
2022-11-28T04:42:35.105Z,101745.00
2022-11-28T04:45:01.525Z,101746.00
2022-11-28T04:47:28.193Z,101746.56
2022-11-28T04:49:54.997Z,101746.44
2022-11-28T04:52:25.051Z,101746.56
2022-11-28T04:54:54.205Z,101747.59
2022-11-28T04:57:35.113Z,101741.28
2022-11-28T05:00:02.706Z,101744.00
2022-11-28T05:02:29.484Z,101743.13
2022-11-28T05:04:56.105Z,101744.16
2022-11-28T05:07:24.135Z,101732.44
2022-11-28T05:09:51.028Z,101738.72
2022-11-28T05:12:17.781Z,101737.88
2022-11-28T05:14:44.379Z,101735.16
2022-11-28T05:17:12.531Z,101741.28
2022-11-28T05:19:39.038Z,101737.72
2022-11-28T05:22:05.497Z,101739.44
2022-11-28T05:24:42.792Z,101739.44
2022-11-28T05:27:11.425Z,101736.88
2022-11-28T05:29:37.855Z,101736.00
2022-11-28T05:32:04.510Z,101726.00
2022-11-28T05:34:31.235Z,101731.31
2022-11-28T05:36:58.161Z,101731.31
2022-11-28T05:39:24.630Z,101729.75
2022-11-28T05:41:51.043Z,101734.16
2022-11-28T05:44:17.424Z,101734.03
2022-11-28T05:46:43.798Z,101740.31
2022-11-28T05:49:10.254Z,101726.59
2022-11-28T05:51:36.759Z,101736.44
2022-11-28T05:54:03.377Z,101732.59
2022-11-28T05:56:30.069Z,101724.28
2022-11-28T05:58:56.508Z,101718.88
2022-11-28T06:01:27.495Z,101717.16
2022-11-28T06:03:59.848Z,101718.03
2022-11-28T06:06:36.077Z,101709.03
2022-11-28T06:09:02.544Z,101709.19
2022-11-28T06:11:30.341Z,101718.31
2022-11-28T06:13:56.820Z,101711.31
2022-11-28T06:16:24.816Z,101715.91
2022-11-28T06:18:55.793Z,101720.47
2022-11-28T06:21:22.560Z,101706.91
2022-11-28T06:23:49.358Z,101704.03
2022-11-28T06:26:17.064Z,101709.47
2022-11-28T06:28:43.811Z,101705.06
2022-11-28T06:31:14.429Z,101697.78
2022-11-28T06:33:41.474Z,101694.22
2022-11-28T06:36:08.906Z,101696.06
2022-11-28T06:38:35.742Z,101700.59
2022-11-28T06:41:04.005Z,101689.06
2022-11-28T06:43:30.455Z,101693.88
2022-11-28T06:45:56.919Z,101685.06
2022-11-28T06:48:23.780Z,101682.75
2022-11-28T06:50:50.218Z,101684.75
2022-11-28T06:53:16.889Z,101676.78
2022-11-28T06:55:43.664Z,101673.50
2022-11-28T06:58:10.574Z,101673.50
2022-11-28T07:00:37.029Z,101675.22
2022-11-28T07:03:03.677Z,101683.34
2022-11-28T07:05:31.079Z,101693.34
2022-11-28T07:07:58.273Z,101693.34
2022-11-28T07:10:24.944Z,101691.47
2022-11-28T07:12:54.994Z,101680.63
2022-11-28T07:15:21.842Z,101678.06
2022-11-28T07:17:48.285Z,101677.22
2022-11-28T07:20:14.751Z,101680.78
2022-11-28T07:22:41.186Z,101671.81
2022-11-28T07:25:07.805Z,101659.38
2022-11-28T07:27:34.258Z,101663.53
2022-11-28T07:30:00.678Z,101680.06
2022-11-28T07:32:27.131Z,101668.66
2022-11-28T07:34:53.952Z,101671.53
2022-11-28T07:37:20.497Z,101668.09
2022-11-28T07:39:47.595Z,101671.34
2022-11-28T07:42:14.046Z,101668.78
2022-11-28T07:44:40.494Z,101666.69
2022-11-28T07:47:07.032Z,101670.31
2022-11-28T07:49:33.555Z,101662.88
2022-11-28T07:52:00.060Z,101662.63
2022-11-28T07:54:26.726Z,101663.91
2022-11-28T07:59:39.740Z,101664.97
2022-11-28T08:02:06.841Z,101669.56
2022-11-28T08:04:33.365Z,101677.00
2022-11-28T08:06:59.894Z,101674.59
2022-11-28T08:09:26.447Z,101668.63
2022-11-28T08:11:53.046Z,101677.75
2022-11-28T08:14:20.507Z,101669.06
2022-11-28T08:16:47.067Z,101670.25
2022-11-28T08:19:13.547Z,101679.47
2022-11-28T08:21:40.005Z,101678.09
2022-11-28T08:24:08.219Z,101668.53
2022-11-28T08:26:36.607Z,101677.78
2022-11-28T08:29:03.534Z,101666.53
2022-11-28T08:31:34.201Z,101647.13
2022-11-28T08:34:05.122Z,101657.38
2022-11-28T08:36:31.859Z,101646.97
2022-11-28T08:39:23.929Z,101650.09
2022-11-28T08:41:48.291Z,101646.94
2022-11-28T08:44:15.502Z,101653.81
2022-11-28T08:46:42.011Z,101654.38
2022-11-28T08:49:08.457Z,101651.22
2022-11-28T08:51:35.086Z,101653.66
2022-11-28T08:54:01.535Z,101652.38
2022-11-28T08:56:28.246Z,101656.63
2022-11-28T08:58:55.794Z,101652.78
2022-11-28T09:01:24.165Z,101655.19
2022-11-28T09:03:51.100Z,101657.75
2022-11-28T09:06:18.011Z,101651.19
2022-11-28T09:08:44.959Z,101650.03
2022-11-28T09:11:14.672Z,101642.59
2022-11-28T09:13:41.552Z,101644.03
2022-11-28T09:16:08.210Z,101645.56
2022-11-28T09:18:35.157Z,101652.56
2022-11-28T09:21:02.883Z,101654.09
2022-11-28T09:23:29.449Z,101652.97
2022-11-28T09:25:56.305Z,101652.81
2022-11-28T09:28:23.553Z,101653.53
2022-11-28T09:30:50.169Z,101654.38
2022-11-28T09:33:16.663Z,101640.53
2022-11-28T09:35:45.075Z,101634.94
2022-11-28T09:38:11.626Z,101628.19
2022-11-28T09:40:39.595Z,101632.63
2022-11-28T09:43:24.490Z,101630.75
2022-11-28T09:45:52.769Z,101628.75
2022-11-28T09:48:30.957Z,101625.88
2022-11-28T09:51:03.641Z,101621.16
2022-11-28T09:53:30.061Z,101618.28
2022-11-28T09:55:59.617Z,101616.59
2022-11-28T09:58:44.893Z,101603.72
2022-11-28T10:01:20.598Z,101608.84
2022-11-28T10:04:10.498Z,101604.28
2022-11-28T10:07:00.045Z,101601.41
2022-11-28T10:09:45.211Z,101601.25
2022-11-28T10:12:18.166Z,101592.94
2022-11-28T10:14:44.769Z,101598.25
2022-11-28T10:17:20.213Z,101593.66
2022-11-28T10:19:54.881Z,101605.22
2022-11-28T10:22:27.201Z,101593.22
2022-11-28T10:24:57.848Z,101595.94
2022-11-28T10:27:29.774Z,101593.03
2022-11-28T10:29:59.806Z,101593.88
2022-11-28T10:32:38.038Z,101585.63
2022-11-28T10:35:04.661Z,101588.16
2022-11-28T10:37:32.346Z,101584.44
2022-11-28T10:40:03.047Z,101580.75
2022-11-28T10:42:39.338Z,101586.00
2022-11-28T10:45:24.354Z,101588.56
2022-11-28T10:47:56.905Z,101583.28
2022-11-28T10:50:42.115Z,101585.75
2022-11-28T10:53:16.444Z,101586.59
2022-11-28T10:56:15.479Z,101589.13
2022-11-28T10:58:41.910Z,101587.28
2022-11-28T11:01:08.814Z,101588.00
2022-11-28T11:03:38.135Z,101586.13
2022-11-28T11:06:04.966Z,101587.69
2022-11-28T11:08:38.046Z,101588.66
2022-11-28T11:11:04.529Z,101584.81
2022-11-28T11:13:35.420Z,101582.09
2022-11-28T11:16:09.838Z,101588.22
2022-11-28T11:18:38.046Z,101579.91
2022-11-28T11:21:09.473Z,101578.22
2022-11-28T11:23:38.472Z,101575.34
2022-11-28T11:26:10.121Z,101569.06
2022-11-28T11:28:40.005Z,101575.19
2022-11-28T11:31:27.462Z,101563.31
2022-11-28T11:34:01.867Z,101568.59
2022-11-28T11:36:32.325Z,101559.59
2022-11-28T11:39:10.973Z,101555.88
2022-11-28T11:41:38.777Z,101564.84
2022-11-28T11:44:14.174Z,101559.44
2022-11-28T11:46:53.976Z,101554.84
2022-11-28T11:49:38.945Z,101558.41
2022-11-28T11:52:12.786Z,101562.84
2022-11-28T11:54:59.462Z,101563.72
2022-11-28T11:57:33.281Z,101559.97
2022-11-28T12:00:20.965Z,101557.25
2022-11-28T12:03:07.886Z,101562.53
2022-11-28T12:06:14.592Z,101554.38
2022-11-28T12:08:41.160Z,101555.09
2022-11-28T12:11:07.569Z,101548.81
2022-11-28T12:13:34.276Z,101555.09
2022-11-28T12:16:00.794Z,101547.78
2022-11-28T12:18:27.702Z,101548.63
2022-11-28T12:21:14.534Z,101548.47
2022-11-28T12:24:19.705Z,101553.06
2022-11-28T12:26:48.876Z,101553.91
2022-11-28T12:29:23.082Z,101549.34
2022-11-28T12:31:55.873Z,101545.75
2022-11-28T12:34:25.490Z,101548.34
2022-11-28T12:37:10.781Z,101543.75
2022-11-28T12:39:52.530Z,101540.19
2022-11-28T12:42:25.166Z,101534.75
2022-11-28T12:45:10.535Z,101535.59
2022-11-28T12:47:36.963Z,101536.44
2022-11-28T12:50:15.350Z,101530.16
2022-11-28T12:52:51.087Z,101530.00
2022-11-28T12:55:17.496Z,101522.69
2022-11-28T12:58:04.021Z,101522.69
2022-11-28T13:00:33.432Z,101523.56
2022-11-28T13:03:12.173Z,101528.00
2022-11-28T13:05:45.006Z,101520.88
2022-11-28T13:08:17.306Z,101521.72
2022-11-28T13:11:03.964Z,101524.44
2022-11-28T13:13:34.724Z,101533.13
2022-11-28T13:16:04.248Z,101517.81
2022-11-28T13:18:30.894Z,101519.66
2022-11-28T13:21:03.415Z,101525.97
2022-11-28T13:23:45.291Z,101513.22
2022-11-28T13:26:21.537Z,101508.66
2022-11-28T13:28:52.586Z,101510.50
2022-11-28T13:31:48.508Z,101513.94
2022-11-28T13:34:16.719Z,101513.94
2022-11-28T13:40:14.338Z,101510.19
2022-11-28T13:43:06.988Z,101501.19
2022-11-28T13:45:35.858Z,101497.47
2022-11-28T13:48:32.294Z,101509.19
2022-11-28T13:51:19.148Z,101507.34
2022-11-28T13:53:47.753Z,101515.50
2022-11-28T13:56:21.990Z,101515.31
2022-11-28T13:58:51.477Z,101516.34
2022-11-28T14:01:19.201Z,101517.19
2022-11-28T14:03:57.851Z,101519.75
2022-11-28T14:06:40.156Z,101518.72
2022-11-28T14:09:25.639Z,101516.00
2022-11-28T14:12:00.611Z,101510.56
2022-11-28T14:14:27.123Z,101516.88
2022-11-28T14:17:12.000Z,101525.88
2022-11-28T14:19:45.957Z,101522.16
2022-11-28T14:22:24.769Z,101522.16
2022-11-28T14:24:53.929Z,101525.72
2022-11-28T14:27:26.471Z,101525.72
2022-11-28T14:29:54.585Z,101530.13
2022-11-28T14:32:30.889Z,101531.81
2022-11-28T14:34:57.759Z,101531.81
2022-11-28T14:37:28.594Z,101535.44
2022-11-28T14:39:56.151Z,101530.97
2022-11-28T14:45:31.346Z,101542.56
2022-11-28T14:48:14.475Z,101537.97
2022-11-28T14:50:40.957Z,101539.00
2022-11-28T14:53:26.183Z,101532.72
2022-11-28T14:55:52.626Z,101526.41
2022-11-28T14:58:19.599Z,101526.41
2022-11-28T15:00:56.069Z,101528.97
2022-11-28T15:03:48.570Z,101519.13
2022-11-28T15:06:17.949Z,101524.56
2022-11-28T15:08:56.391Z,101523.69
2022-11-28T15:11:29.848Z,101522.69
2022-11-28T15:14:19.727Z,101520.09
2022-11-28T15:16:50.527Z,101522.69
2022-11-28T15:19:20.374Z,101522.69
2022-11-28T15:21:47.832Z,101518.25
2022-11-28T15:24:34.497Z,101519.97
2022-11-28T15:27:07.033Z,101516.41
2022-11-28T15:29:33.937Z,101520.81
2022-11-28T15:32:01.191Z,101511.81
2022-11-28T15:34:31.980Z,101518.94
2022-11-28T15:37:06.427Z,101516.41
2022-11-28T15:39:40.278Z,101518.09
2022-11-28T15:42:19.789Z,101518.09
2022-11-28T15:44:46.487Z,101527.28
2022-11-28T15:47:18.884Z,101520.81
2022-11-28T15:49:45.516Z,101526.25
2022-11-28T15:52:20.806Z,101518.94
2022-11-28T15:54:51.396Z,101517.09
2022-11-28T15:57:23.387Z,101519.81
2022-11-28T15:59:49.974Z,101518.94
2022-11-28T16:02:22.829Z,101510.81
2022-11-28T16:04:52.323Z,101516.06
2022-11-28T16:07:21.440Z,101511.34
2022-11-28T16:09:55.131Z,101512.19
2022-11-28T16:12:21.825Z,101509.31
2022-11-28T16:14:48.914Z,101518.16
2022-11-28T16:17:19.498Z,101519.19
2022-11-28T16:19:46.137Z,101512.56
2022-11-28T16:22:19.086Z,101516.28
2022-11-28T16:24:47.289Z,101517.84
2022-11-28T16:27:29.689Z,101515.97
2022-11-28T16:29:56.162Z,101519.56
2022-11-28T16:32:26.258Z,101518.53
2022-11-28T16:34:54.002Z,101512.25
2022-11-28T16:37:24.610Z,101523.78
2022-11-28T16:40:06.380Z,101517.50
2022-11-28T16:42:33.837Z,101519.25
2022-11-28T16:45:17.393Z,101527.38
2022-11-28T16:47:44.176Z,101530.97
2022-11-28T16:50:18.725Z,101529.09
2022-11-28T16:52:46.198Z,101532.66
2022-11-28T16:55:37.265Z,101526.38
2022-11-28T16:58:14.447Z,101527.06
2022-11-28T17:00:44.135Z,101524.34
2022-11-28T17:03:29.205Z,101523.31
2022-11-28T17:05:55.663Z,101526.91
2022-11-28T17:08:26.095Z,101524.19
2022-11-28T17:10:55.615Z,101529.63
2022-11-28T17:13:22.198Z,101531.31
2022-11-28T17:15:48.680Z,101536.59
2022-11-28T17:18:15.183Z,101532.00
2022-11-28T17:20:41.737Z,101533.72
2022-11-28T17:23:08.172Z,101534.59
2022-11-28T17:25:34.600Z,101533.72
2022-11-28T17:28:01.032Z,101533.56
2022-11-28T17:30:27.509Z,101528.97
2022-11-28T17:32:54.236Z,101530.84
2022-11-28T17:35:23.121Z,101524.38
2022-11-28T17:37:49.554Z,101533.56
2022-11-28T17:40:42.074Z,101527.94
2022-11-28T17:43:16.778Z,101533.38
2022-11-28T17:45:44.152Z,101534.94
2022-11-28T17:48:13.837Z,101529.69
2022-11-28T17:50:41.462Z,101529.50
2022-11-28T17:53:09.102Z,101534.94
2022-11-28T17:55:35.517Z,101526.63
2022-11-28T17:58:02.037Z,101525.78
2022-11-28T18:00:29.308Z,101525.78
2022-11-28T18:02:55.850Z,101526.63
2022-11-28T18:05:22.287Z,101531.06
2022-11-28T18:07:48.851Z,101534.63
2022-11-28T18:10:15.610Z,101528.19
2022-11-28T18:12:42.180Z,101520.19
2022-11-28T18:15:10.495Z,101530.06
2022-11-28T18:17:37.166Z,101527.16
2022-11-28T18:20:05.097Z,101532.75
2022-11-28T18:22:31.677Z,101524.44
2022-11-28T18:24:58.201Z,101530.72
2022-11-28T18:27:24.697Z,101527.00
2022-11-28T18:29:51.449Z,101534.28
2022-11-28T18:32:18.031Z,101529.72
2022-11-28T18:34:44.516Z,101539.72
2022-11-28T18:37:10.991Z,101540.63
2022-11-28T18:39:37.412Z,101536.03
2022-11-28T18:42:04.887Z,101535.00
2022-11-28T18:44:31.440Z,101521.56
2022-11-28T18:46:57.844Z,101518.84
2022-11-28T18:49:24.352Z,101526.84
2022-11-28T18:51:50.989Z,101527.69
2022-11-28T18:54:21.015Z,101530.41
2022-11-28T18:56:48.301Z,101526.84
2022-11-28T18:59:14.836Z,101540.28
2022-11-28T19:01:41.356Z,101533.97
2022-11-28T19:04:09.549Z,101528.72
2022-11-28T19:06:36.954Z,101534.16
2022-11-28T19:09:04.738Z,101528.72
2022-11-28T19:11:31.273Z,101535.00
2022-11-28T19:13:58.090Z,101536.03
2022-11-28T19:16:28.774Z,101532.28
2022-11-28T19:18:55.740Z,101527.69
2022-11-28T19:21:23.807Z,101525.28
2022-11-28T19:23:50.966Z,101526.00
2022-11-28T19:26:18.794Z,101525.81
2022-11-28T19:28:45.337Z,101521.97
2022-11-28T19:31:22.353Z,101522.94
2022-11-28T19:34:09.065Z,101530.13
2022-11-28T19:36:37.613Z,101528.38
2022-11-28T19:39:04.649Z,101530.97
2022-11-28T19:41:32.320Z,101517.00
2022-11-28T19:43:59.135Z,101525.66
2022-11-28T19:46:29.185Z,101526.56
2022-11-28T19:48:58.570Z,101513.81
2022-11-28T19:51:25.090Z,101516.66
2022-11-28T19:53:51.574Z,101522.81
2022-11-28T19:56:19.456Z,101518.50
2022-11-28T19:58:46.659Z,101532.00
2022-11-28T20:01:14.567Z,101525.66
2022-11-28T20:03:41.920Z,101527.53
2022-11-28T20:06:09.934Z,101529.38
2022-11-28T20:08:36.726Z,101521.97
2022-11-28T20:11:17.104Z,101532.09
2022-11-28T20:13:43.941Z,101522.25
2022-11-28T20:16:11.480Z,101528.53
2022-11-28T20:18:39.064Z,101533.97
2022-11-28T20:21:07.386Z,101526.00
2022-11-28T20:23:34.261Z,101530.41
2022-11-28T20:26:04.700Z,101535.84
2022-11-28T20:28:32.472Z,101538.56
2022-11-28T20:30:58.921Z,101542.13
2022-11-28T20:33:25.401Z,101539.41
2022-11-28T20:35:56.972Z,101545.72
2022-11-28T20:38:26.352Z,101524.97
2022-11-28T20:40:58.795Z,101514.94
2022-11-28T20:43:25.239Z,101508.66
2022-11-28T20:45:51.700Z,101512.22
2022-11-28T20:48:18.263Z,101517.00
2022-11-28T20:50:44.672Z,101534.16
2022-11-28T20:53:11.333Z,101529.56
2022-11-28T20:55:37.939Z,101536.88
2022-11-28T20:58:04.486Z,101535.00
2022-11-28T21:00:31.057Z,101535.00
2022-11-28T21:02:57.567Z,101536.88
2022-11-28T21:05:24.089Z,101534.16
2022-11-28T21:07:50.630Z,101535.84
2022-11-28T21:10:17.157Z,101535.84
2022-11-28T21:12:43.688Z,101535.00
2022-11-28T21:15:10.306Z,101525.16
2022-11-28T21:17:36.794Z,101531.44
2022-11-28T21:20:04.027Z,101535.84
2022-11-28T21:22:30.774Z,101529.56
2022-11-28T21:24:57.302Z,101539.59
2022-11-28T21:27:23.972Z,101541.47
2022-11-28T21:29:52.078Z,101539.59
2022-11-28T21:32:18.870Z,101531.56
2022-11-28T21:34:45.364Z,101538.75
2022-11-28T21:37:11.807Z,101531.44
2022-11-28T21:39:38.287Z,101531.44
2022-11-28T21:42:04.870Z,101535.00
2022-11-28T21:44:31.365Z,101537.72
2022-11-28T21:46:57.854Z,101530.59
2022-11-28T21:49:24.331Z,101535.00
2022-11-28T21:51:50.881Z,101531.25
2022-11-28T21:54:17.549Z,101542.13
2022-11-28T21:56:44.110Z,101537.72
2022-11-28T21:59:10.639Z,101537.72
2022-11-28T22:01:37.160Z,101538.56
2022-11-28T22:04:03.862Z,101529.56
2022-11-28T22:06:30.346Z,101531.44
2022-11-28T22:08:56.923Z,101530.41
2022-11-28T22:11:24.179Z,101527.69
2022-11-28T22:13:51.039Z,101528.72
2022-11-28T22:16:18.916Z,101534.81
2022-11-28T22:18:45.623Z,101522.25
2022-11-28T22:21:49.892Z,101527.69
2022-11-28T22:23:58.937Z,101528.13
2022-11-28T22:26:25.385Z,101515.94
2022-11-28T22:28:53.776Z,101521.00
2022-11-28T22:31:21.047Z,101517.75
2022-11-28T22:33:48.858Z,101522.94
2022-11-28T22:36:16.240Z,101521.56
2022-11-28T22:38:43.733Z,101515.28
2022-11-28T22:41:11.269Z,101516.88
2022-11-28T22:43:38.507Z,101528.97
2022-11-28T22:46:05.371Z,101522.22
2022-11-28T22:48:32.379Z,101523.53
2022-11-28T22:50:59.459Z,101526.66
2022-11-28T22:53:25.980Z,101523.63
2022-11-28T22:55:52.477Z,101526.75
2022-11-28T22:58:18.882Z,101532.59
2022-11-28T23:00:45.439Z,101534.59
2022-11-28T23:03:13.842Z,101538.69
2022-11-28T23:05:40.409Z,101541.97
2022-11-28T23:08:07.632Z,101533.53
2022-11-28T23:10:36.401Z,101535.09
2022-11-28T23:13:02.811Z,101536.81
2022-11-28T23:15:29.236Z,101544.09
2022-11-28T23:17:55.657Z,101539.38
2022-11-28T23:20:22.167Z,101544.94
2022-11-28T23:22:48.618Z,101538.81
2022-11-28T23:25:15.386Z,101539.66
2022-11-28T23:27:41.837Z,101539.81
2022-11-28T23:30:08.443Z,101532.81
2022-11-28T23:32:34.943Z,101531.84
2022-11-28T23:35:01.429Z,101534.56
2022-11-28T23:37:27.911Z,101543.38
2022-11-28T23:39:54.337Z,101535.25
2022-11-28T23:42:20.762Z,101529.66
2022-11-28T23:44:47.723Z,101541.22
2022-11-28T23:47:14.304Z,101524.09
2022-11-28T23:49:40.719Z,101539.53
2022-11-28T23:52:07.265Z,101535.81
2022-11-28T23:54:33.655Z,101540.22
2022-11-28T23:57:00.138Z,101540.94
2022-11-28T23:59:26.577Z,101539.19
